sensor_id;sensor_type;location;lat;lon;timestamp;temperature;humidity
2010;DHT22;1008;47.404;8.502;2023-04-25T00:00:20;10.60;99.90
2010;DHT22;1008;47.404;8.502;2023-04-25T00:02:47;10.50;99.90
2010;DHT22;1008;47.404;8.502;2023-04-25T00:05:14;10.50;99.90
2010;DHT22;1008;47.404;8.502;2023-04-25T00:07:41;10.50;99.90
2010;DHT22;1008;47.404;8.502;2023-04-25T00:10:10;10.80;99.90
2010;DHT22;1008;47.404;8.502;2023-04-25T00:12:37;10.50;99.90
2010;DHT22;1008;47.404;8.502;2023-04-25T00:15:05;10.50;99.90
2010;DHT22;1008;47.404;8.502;2023-04-25T00:17:32;10.40;99.90
2010;DHT22;1008;47.404;8.502;2023-04-25T00:20:00;10.50;99.90
2010;DHT22;1008;47.404;8.502;2023-04-25T00:22:30;10.60;99.90
2010;DHT22;1008;47.404;8.502;2023-04-25T00:24:57;10.50;99.90
2010;DHT22;1008;47.404;8.502;2023-04-25T00:27:26;10.40;99.90
2010;DHT22;1008;47.404;8.502;2023-04-25T00:29:53;10.50;99.90
2010;DHT22;1008;47.404;8.502;2023-04-25T00:32:20;10.40;99.90
2010;DHT22;1008;47.404;8.502;2023-04-25T00:34:47;10.40;99.90
2010;DHT22;1008;47.404;8.502;2023-04-25T00:37:13;10.40;99.90
2010;DHT22;1008;47.404;8.502;2023-04-25T00:39:40;10.40;99.90
2010;DHT22;1008;47.404;8.502;2023-04-25T00:42:08;10.40;99.90
2010;DHT22;1008;47.404;8.502;2023-04-25T00:44:36;10.20;99.90
2010;DHT22;1008;47.404;8.502;2023-04-25T00:47:03;10.30;99.90
2010;DHT22;1008;47.404;8.502;2023-04-25T00:49:30;10.40;99.90
2010;DHT22;1008;47.404;8.502;2023-04-25T00:51:57;10.40;99.90
2010;DHT22;1008;47.404;8.502;2023-04-25T00:54:24;10.60;99.90
2010;DHT22;1008;47.404;8.502;2023-04-25T00:56:51;10.50;99.90
2010;DHT22;1008;47.404;8.502;2023-04-25T00:59:19;10.40;99.90
2010;DHT22;1008;47.404;8.502;2023-04-25T01:01:48;10.20;99.90
2010;DHT22;1008;47.404;8.502;2023-04-25T01:04:14;10.10;99.90
2010;DHT22;1008;47.404;8.502;2023-04-25T01:06:41;9.80;99.90
2010;DHT22;1008;47.404;8.502;2023-04-25T01:09:08;9.90;99.90
2010;DHT22;1008;47.404;8.502;2023-04-25T01:11:35;10.00;99.90
2010;DHT22;1008;47.404;8.502;2023-04-25T01:14:02;10.10;99.90
2010;DHT22;1008;47.404;8.502;2023-04-25T01:16:29;10.40;99.90
2010;DHT22;1008;47.404;8.502;2023-04-25T01:18:58;10.20;99.90
2010;DHT22;1008;47.404;8.502;2023-04-25T01:21:27;10.20;99.90
2010;DHT22;1008;47.404;8.502;2023-04-25T01:23:55;10.40;99.90
2010;DHT22;1008;47.404;8.502;2023-04-25T01:26:22;10.30;99.90
2010;DHT22;1008;47.404;8.502;2023-04-25T01:28:49;10.30;99.90
2010;DHT22;1008;47.404;8.502;2023-04-25T01:31:17;10.40;99.90
2010;DHT22;1008;47.404;8.502;2023-04-25T01:33:44;10.50;99.90
2010;DHT22;1008;47.404;8.502;2023-04-25T01:36:12;10.50;99.90
2010;DHT22;1008;47.404;8.502;2023-04-25T01:38:41;10.50;99.90
2010;DHT22;1008;47.404;8.502;2023-04-25T01:41:09;10.20;99.90
2010;DHT22;1008;47.404;8.502;2023-04-25T01:43:36;10.30;99.90
2010;DHT22;1008;47.404;8.502;2023-04-25T01:46:03;10.40;99.90
2010;DHT22;1008;47.404;8.502;2023-04-25T01:48:30;10.30;99.90
2010;DHT22;1008;47.404;8.502;2023-04-25T01:50:57;10.40;99.90
2010;DHT22;1008;47.404;8.502;2023-04-25T01:53:24;10.30;99.90
2010;DHT22;1008;47.404;8.502;2023-04-25T01:55:52;10.50;99.90
2010;DHT22;1008;47.404;8.502;2023-04-25T01:58:19;10.40;99.90
2010;DHT22;1008;47.404;8.502;2023-04-25T02:00:46;10.20;99.90
2010;DHT22;1008;47.404;8.502;2023-04-25T02:03:13;10.40;99.90
2010;DHT22;1008;47.404;8.502;2023-04-25T02:05:40;10.10;99.90
2010;DHT22;1008;47.404;8.502;2023-04-25T02:08:08;10.10;99.90
2010;DHT22;1008;47.404;8.502;2023-04-25T02:10:36;10.20;99.90
2010;DHT22;1008;47.404;8.502;2023-04-25T02:13:04;10.10;99.90
2010;DHT22;1008;47.404;8.502;2023-04-25T02:15:31;9.90;99.90
2010;DHT22;1008;47.404;8.502;2023-04-25T02:17:58;10.30;99.90
2010;DHT22;1008;47.404;8.502;2023-04-25T02:20:25;10.10;99.90
2010;DHT22;1008;47.404;8.502;2023-04-25T02:22:52;10.10;99.90
2010;DHT22;1008;47.404;8.502;2023-04-25T02:25:19;10.20;99.90
2010;DHT22;1008;47.404;8.502;2023-04-25T02:27:46;10.20;99.90
2010;DHT22;1008;47.404;8.502;2023-04-25T02:30:14;10.20;99.90
2010;DHT22;1008;47.404;8.502;2023-04-25T02:32:41;10.20;99.90
2010;DHT22;1008;47.404;8.502;2023-04-25T02:35:08;10.30;99.90
2010;DHT22;1008;47.404;8.502;2023-04-25T02:37:37;10.30;99.90
2010;DHT22;1008;47.404;8.502;2023-04-25T02:40:05;10.30;99.90
2010;DHT22;1008;47.404;8.502;2023-04-25T02:42:32;10.30;99.90
2010;DHT22;1008;47.404;8.502;2023-04-25T02:44:59;10.30;99.90
2010;DHT22;1008;47.404;8.502;2023-04-25T02:47:27;10.40;99.90
2010;DHT22;1008;47.404;8.502;2023-04-25T02:49:54;10.30;99.90
2010;DHT22;1008;47.404;8.502;2023-04-25T02:52:20;10.60;99.90
2010;DHT22;1008;47.404;8.502;2023-04-25T02:54:47;10.50;99.90
2010;DHT22;1008;47.404;8.502;2023-04-25T02:57:14;10.10;99.90
2010;DHT22;1008;47.404;8.502;2023-04-25T02:59:41;10.30;99.90
2010;DHT22;1008;47.404;8.502;2023-04-25T03:02:09;10.10;99.90
2010;DHT22;1008;47.404;8.502;2023-04-25T03:04:37;10.40;99.90
2010;DHT22;1008;47.404;8.502;2023-04-25T03:07:04;10.20;99.90
2010;DHT22;1008;47.404;8.502;2023-04-25T03:09:31;10.10;99.90
2010;DHT22;1008;47.404;8.502;2023-04-25T03:11:58;10.10;99.90
2010;DHT22;1008;47.404;8.502;2023-04-25T03:14:24;10.20;99.90
2010;DHT22;1008;47.404;8.502;2023-04-25T03:16:51;10.20;99.90
2010;DHT22;1008;47.404;8.502;2023-04-25T03:19:18;10.20;99.90
2010;DHT22;1008;47.404;8.502;2023-04-25T03:21:47;10.20;99.90
2010;DHT22;1008;47.404;8.502;2023-04-25T03:24:14;10.10;99.90
2010;DHT22;1008;47.404;8.502;2023-04-25T03:26:40;10.00;99.90
2010;DHT22;1008;47.404;8.502;2023-04-25T03:29:07;9.90;99.90
2010;DHT22;1008;47.404;8.502;2023-04-25T03:31:34;9.80;99.90
2010;DHT22;1008;47.404;8.502;2023-04-25T03:34:01;9.70;99.90
2010;DHT22;1008;47.404;8.502;2023-04-25T03:36:28;9.60;99.90
2010;DHT22;1008;47.404;8.502;2023-04-25T03:38:56;9.80;99.90
2010;DHT22;1008;47.404;8.502;2023-04-25T03:41:22;9.40;99.90
2010;DHT22;1008;47.404;8.502;2023-04-25T03:43:49;9.30;99.90
2010;DHT22;1008;47.404;8.502;2023-04-25T03:46:16;9.20;99.90
2010;DHT22;1008;47.404;8.502;2023-04-25T03:48:43;9.20;99.90
2010;DHT22;1008;47.404;8.502;2023-04-25T03:51:09;9.20;99.90
2010;DHT22;1008;47.404;8.502;2023-04-25T03:53:37;9.20;99.90
2010;DHT22;1008;47.404;8.502;2023-04-25T03:56:06;9.20;99.90
2010;DHT22;1008;47.404;8.502;2023-04-25T03:58:32;9.10;99.90
2010;DHT22;1008;47.404;8.502;2023-04-25T04:00:59;9.10;99.90
2010;DHT22;1008;47.404;8.502;2023-04-25T04:03:28;9.10;99.90
2010;DHT22;1008;47.404;8.502;2023-04-25T04:05:55;9.10;99.90
2010;DHT22;1008;47.404;8.502;2023-04-25T04:08:21;9.10;99.90
2010;DHT22;1008;47.404;8.502;2023-04-25T04:10:48;9.00;99.90
2010;DHT22;1008;47.404;8.502;2023-04-25T04:13:16;9.00;99.90
2010;DHT22;1008;47.404;8.502;2023-04-25T04:15:43;8.90;99.90
2010;DHT22;1008;47.404;8.502;2023-04-25T04:18:10;8.90;99.90
2010;DHT22;1008;47.404;8.502;2023-04-25T04:20:36;8.90;99.90
2010;DHT22;1008;47.404;8.502;2023-04-25T04:23:03;8.80;99.90
2010;DHT22;1008;47.404;8.502;2023-04-25T04:25:30;8.80;99.90
2010;DHT22;1008;47.404;8.502;2023-04-25T04:27:57;8.80;99.90
2010;DHT22;1008;47.404;8.502;2023-04-25T04:30:26;8.80;99.90
2010;DHT22;1008;47.404;8.502;2023-04-25T04:32:55;8.90;99.90
2010;DHT22;1008;47.404;8.502;2023-04-25T04:35:22;8.90;99.90
2010;DHT22;1008;47.404;8.502;2023-04-25T04:37:49;8.90;99.90
2010;DHT22;1008;47.404;8.502;2023-04-25T04:40:16;8.80;99.90
2010;DHT22;1008;47.404;8.502;2023-04-25T04:42:43;8.90;99.90
2010;DHT22;1008;47.404;8.502;2023-04-25T04:45:11;9.00;99.90
2010;DHT22;1008;47.404;8.502;2023-04-25T04:47:39;9.10;99.90
2010;DHT22;1008;47.404;8.502;2023-04-25T04:50:07;9.10;99.90
2010;DHT22;1008;47.404;8.502;2023-04-25T04:52:34;9.00;99.90
2010;DHT22;1008;47.404;8.502;2023-04-25T04:55:01;9.20;99.90
2010;DHT22;1008;47.404;8.502;2023-04-25T04:57:28;9.20;99.90
2010;DHT22;1008;47.404;8.502;2023-04-25T04:59:56;9.10;99.90
2010;DHT22;1008;47.404;8.502;2023-04-25T05:02:23;9.10;99.90
2010;DHT22;1008;47.404;8.502;2023-04-25T05:04:51;9.20;99.90
2010;DHT22;1008;47.404;8.502;2023-04-25T05:07:18;9.40;99.90
2010;DHT22;1008;47.404;8.502;2023-04-25T05:09:45;9.40;99.90
2010;DHT22;1008;47.404;8.502;2023-04-25T05:12:14;9.60;99.90
2010;DHT22;1008;47.404;8.502;2023-04-25T05:14:40;9.80;99.90
2010;DHT22;1008;47.404;8.502;2023-04-25T05:17:07;9.60;99.90
2010;DHT22;1008;47.404;8.502;2023-04-25T05:19:41;9.70;99.90
2010;DHT22;1008;47.404;8.502;2023-04-25T05:22:09;9.70;99.90
2010;DHT22;1008;47.404;8.502;2023-04-25T05:24:36;9.70;99.90
2010;DHT22;1008;47.404;8.502;2023-04-25T05:27:03;9.60;99.90
2010;DHT22;1008;47.404;8.502;2023-04-25T05:29:30;9.30;99.90
2010;DHT22;1008;47.404;8.502;2023-04-25T05:31:57;9.20;99.90
2010;DHT22;1008;47.404;8.502;2023-04-25T05:34:24;9.10;99.90
2010;DHT22;1008;47.404;8.502;2023-04-25T05:36:51;9.10;99.90
2010;DHT22;1008;47.404;8.502;2023-04-25T05:39:19;9.00;99.90
2010;DHT22;1008;47.404;8.502;2023-04-25T05:41:46;9.50;99.90
2010;DHT22;1008;47.404;8.502;2023-04-25T05:44:12;9.30;99.90
2010;DHT22;1008;47.404;8.502;2023-04-25T05:46:41;9.50;99.90
2010;DHT22;1008;47.404;8.502;2023-04-25T05:49:08;9.30;99.90
2010;DHT22;1008;47.404;8.502;2023-04-25T05:51:34;9.30;99.90
2010;DHT22;1008;47.404;8.502;2023-04-25T05:54:01;9.40;99.90
2010;DHT22;1008;47.404;8.502;2023-04-25T05:56:30;9.50;99.90
2010;DHT22;1008;47.404;8.502;2023-04-25T05:58:57;9.40;99.90
2010;DHT22;1008;47.404;8.502;2023-04-25T06:01:24;9.30;99.90
2010;DHT22;1008;47.404;8.502;2023-04-25T06:03:51;9.50;99.90
2010;DHT22;1008;47.404;8.502;2023-04-25T06:06:18;9.60;99.90
2010;DHT22;1008;47.404;8.502;2023-04-25T06:08:44;9.60;99.90
2010;DHT22;1008;47.404;8.502;2023-04-25T06:11:11;9.70;99.90
2010;DHT22;1008;47.404;8.502;2023-04-25T06:13:39;9.30;99.90
2010;DHT22;1008;47.404;8.502;2023-04-25T06:16:06;9.30;99.90
2010;DHT22;1008;47.404;8.502;2023-04-25T06:18:33;9.20;99.90
2010;DHT22;1008;47.404;8.502;2023-04-25T06:21:00;9.10;99.90
2010;DHT22;1008;47.404;8.502;2023-04-25T06:23:26;9.00;99.90
2010;DHT22;1008;47.404;8.502;2023-04-25T06:25:53;8.90;99.90
2010;DHT22;1008;47.404;8.502;2023-04-25T06:28:20;8.80;99.90
2010;DHT22;1008;47.404;8.502;2023-04-25T06:30:48;8.60;99.90
2010;DHT22;1008;47.404;8.502;2023-04-25T06:33:15;8.40;99.90
2010;DHT22;1008;47.404;8.502;2023-04-25T06:35:42;8.60;99.90
2010;DHT22;1008;47.404;8.502;2023-04-25T06:38:09;8.00;99.90
2010;DHT22;1008;47.404;8.502;2023-04-25T06:40:35;7.60;99.90
2010;DHT22;1008;47.404;8.502;2023-04-25T06:43:02;7.50;99.90
2010;DHT22;1008;47.404;8.502;2023-04-25T06:45:29;7.30;99.90
2010;DHT22;1008;47.404;8.502;2023-04-25T06:47:57;7.30;99.90
2010;DHT22;1008;47.404;8.502;2023-04-25T06:50:24;7.10;99.90
2010;DHT22;1008;47.404;8.502;2023-04-25T06:52:51;7.30;99.90
2010;DHT22;1008;47.404;8.502;2023-04-25T06:55:18;7.30;99.90
2010;DHT22;1008;47.404;8.502;2023-04-25T06:57:45;7.60;99.90
2010;DHT22;1008;47.404;8.502;2023-04-25T07:00:13;7.60;99.90
2010;DHT22;1008;47.404;8.502;2023-04-25T07:02:40;7.50;99.90
2010;DHT22;1008;47.404;8.502;2023-04-25T07:05:10;7.80;99.90
2010;DHT22;1008;47.404;8.502;2023-04-25T07:07:37;7.90;99.90
2010;DHT22;1008;47.404;8.502;2023-04-25T07:10:04;7.60;99.90
2010;DHT22;1008;47.404;8.502;2023-04-25T07:12:31;7.80;99.90
2010;DHT22;1008;47.404;8.502;2023-04-25T07:14:57;7.70;99.90
2010;DHT22;1008;47.404;8.502;2023-04-25T07:17:24;7.80;99.90
2010;DHT22;1008;47.404;8.502;2023-04-25T07:19:51;7.60;99.90
2010;DHT22;1008;47.404;8.502;2023-04-25T07:22:19;7.80;99.90
2010;DHT22;1008;47.404;8.502;2023-04-25T07:24:46;7.70;99.90
2010;DHT22;1008;47.404;8.502;2023-04-25T07:27:14;7.80;99.90
2010;DHT22;1008;47.404;8.502;2023-04-25T07:29:40;8.20;99.90
2010;DHT22;1008;47.404;8.502;2023-04-25T07:32:07;7.90;99.90
2010;DHT22;1008;47.404;8.502;2023-04-25T07:34:35;8.00;99.90
2010;DHT22;1008;47.404;8.502;2023-04-25T07:37:04;8.00;99.90
2010;DHT22;1008;47.404;8.502;2023-04-25T07:39:32;7.90;99.90
2010;DHT22;1008;47.404;8.502;2023-04-25T07:41:59;8.00;99.90
2010;DHT22;1008;47.404;8.502;2023-04-25T07:44:27;7.90;99.90
2010;DHT22;1008;47.404;8.502;2023-04-25T07:46:55;8.00;99.90
2010;DHT22;1008;47.404;8.502;2023-04-25T07:49:23;8.00;99.90
2010;DHT22;1008;47.404;8.502;2023-04-25T07:51:49;8.00;99.90
2010;DHT22;1008;47.404;8.502;2023-04-25T07:54:17;7.90;99.90
2010;DHT22;1008;47.404;8.502;2023-04-25T07:56:45;8.00;99.90
2010;DHT22;1008;47.404;8.502;2023-04-25T07:59:11;8.00;99.90
2010;DHT22;1008;47.404;8.502;2023-04-25T08:01:38;7.80;99.90
2010;DHT22;1008;47.404;8.502;2023-04-25T08:04:05;8.00;99.90
2010;DHT22;1008;47.404;8.502;2023-04-25T08:06:32;8.10;99.90
2010;DHT22;1008;47.404;8.502;2023-04-25T08:08:59;8.30;99.90
2010;DHT22;1008;47.404;8.502;2023-04-25T08:11:25;8.30;99.90
2010;DHT22;1008;47.404;8.502;2023-04-25T08:13:53;8.30;99.90
2010;DHT22;1008;47.404;8.502;2023-04-25T08:16:20;8.30;99.90
2010;DHT22;1008;47.404;8.502;2023-04-25T08:18:47;8.30;99.90
2010;DHT22;1008;47.404;8.502;2023-04-25T08:21:14;8.50;99.90
2010;DHT22;1008;47.404;8.502;2023-04-25T08:23:41;8.30;99.90
2010;DHT22;1008;47.404;8.502;2023-04-25T08:26:08;8.30;99.90
2010;DHT22;1008;47.404;8.502;2023-04-25T08:28:34;8.60;99.90
2010;DHT22;1008;47.404;8.502;2023-04-25T08:31:03;8.40;99.90
2010;DHT22;1008;47.404;8.502;2023-04-25T08:33:29;8.60;99.90
2010;DHT22;1008;47.404;8.502;2023-04-25T08:35:57;8.90;99.90
2010;DHT22;1008;47.404;8.502;2023-04-25T08:38:24;9.00;99.90
2010;DHT22;1008;47.404;8.502;2023-04-25T08:40:51;9.10;99.90
2010;DHT22;1008;47.404;8.502;2023-04-25T08:43:19;9.20;99.90
2010;DHT22;1008;47.404;8.502;2023-04-25T08:45:46;9.60;99.90
2010;DHT22;1008;47.404;8.502;2023-04-25T08:48:16;9.30;99.90
2010;DHT22;1008;47.404;8.502;2023-04-25T08:50:47;9.20;99.90
2010;DHT22;1008;47.404;8.502;2023-04-25T08:53:17;8.80;99.90
2010;DHT22;1008;47.404;8.502;2023-04-25T08:55:48;8.50;99.90
2010;DHT22;1008;47.404;8.502;2023-04-25T08:58:16;8.60;99.90
2010;DHT22;1008;47.404;8.502;2023-04-25T09:00:45;8.60;99.90
2010;DHT22;1008;47.404;8.502;2023-04-25T09:03:12;8.80;99.90
2010;DHT22;1008;47.404;8.502;2023-04-25T09:05:41;8.80;99.90
2010;DHT22;1008;47.404;8.502;2023-04-25T09:08:08;8.60;99.90
2010;DHT22;1008;47.404;8.502;2023-04-25T09:10:35;8.60;99.90
2010;DHT22;1008;47.404;8.502;2023-04-25T09:13:03;8.70;99.90
2010;DHT22;1008;47.404;8.502;2023-04-25T09:15:31;8.80;99.90
2010;DHT22;1008;47.404;8.502;2023-04-25T09:17:59;8.90;99.90
2010;DHT22;1008;47.404;8.502;2023-04-25T09:20:26;9.10;99.90
2010;DHT22;1008;47.404;8.502;2023-04-25T09:23:03;8.90;99.90
2010;DHT22;1008;47.404;8.502;2023-04-25T09:25:34;9.00;99.90
2010;DHT22;1008;47.404;8.502;2023-04-25T09:28:04;9.00;99.90
2010;DHT22;1008;47.404;8.502;2023-04-25T09:30:32;9.20;99.90
2010;DHT22;1008;47.404;8.502;2023-04-25T09:33:04;9.20;99.90
2010;DHT22;1008;47.404;8.502;2023-04-25T09:35:35;9.30;99.90
2010;DHT22;1008;47.404;8.502;2023-04-25T09:38:09;9.60;99.90
2010;DHT22;1008;47.404;8.502;2023-04-25T09:40:40;9.70;99.90
2010;DHT22;1008;47.404;8.502;2023-04-25T09:43:09;10.00;99.90
2010;DHT22;1008;47.404;8.502;2023-04-25T09:45:41;10.00;99.90
2010;DHT22;1008;47.404;8.502;2023-04-25T09:48:11;10.10;99.90
2010;DHT22;1008;47.404;8.502;2023-04-25T09:50:38;10.20;99.90
2010;DHT22;1008;47.404;8.502;2023-04-25T09:53:07;10.20;99.90
2010;DHT22;1008;47.404;8.502;2023-04-25T09:55:34;10.20;99.90
2010;DHT22;1008;47.404;8.502;2023-04-25T09:58:04;9.60;99.90
2010;DHT22;1008;47.404;8.502;2023-04-25T10:00:33;10.10;99.90
2010;DHT22;1008;47.404;8.502;2023-04-25T10:03:01;9.60;99.90
2010;DHT22;1008;47.404;8.502;2023-04-25T10:05:30;9.60;99.90
2010;DHT22;1008;47.404;8.502;2023-04-25T10:08:00;9.70;99.90
2010;DHT22;1008;47.404;8.502;2023-04-25T10:10:30;9.60;99.90
2010;DHT22;1008;47.404;8.502;2023-04-25T10:13:03;9.60;99.90
2010;DHT22;1008;47.404;8.502;2023-04-25T10:15:31;9.40;99.90
2010;DHT22;1008;47.404;8.502;2023-04-25T10:17:59;9.10;99.90
2010;DHT22;1008;47.404;8.502;2023-04-25T10:20:26;9.10;99.90
2010;DHT22;1008;47.404;8.502;2023-04-25T10:22:54;9.50;99.90
2010;DHT22;1008;47.404;8.502;2023-04-25T10:25:23;10.00;99.90
2010;DHT22;1008;47.404;8.502;2023-04-25T10:27:52;10.40;99.90
2010;DHT22;1008;47.404;8.502;2023-04-25T10:30:19;10.60;99.90
2010;DHT22;1008;47.404;8.502;2023-04-25T10:32:47;10.70;99.90
2010;DHT22;1008;47.404;8.502;2023-04-25T10:35:16;11.10;99.90
2010;DHT22;1008;47.404;8.502;2023-04-25T10:37:57;11.20;99.90
2010;DHT22;1008;47.404;8.502;2023-04-25T10:40:24;11.10;99.90
2010;DHT22;1008;47.404;8.502;2023-04-25T10:42:53;10.60;99.90
2010;DHT22;1008;47.404;8.502;2023-04-25T10:45:20;10.90;99.90
2010;DHT22;1008;47.404;8.502;2023-04-25T10:47:47;10.90;99.90
2010;DHT22;1008;47.404;8.502;2023-04-25T10:50:14;10.50;99.90
2010;DHT22;1008;47.404;8.502;2023-04-25T10:52:41;10.20;99.90
2010;DHT22;1008;47.404;8.502;2023-04-25T10:55:09;10.00;99.90
2010;DHT22;1008;47.404;8.502;2023-04-25T10:57:40;10.10;99.90
2010;DHT22;1008;47.404;8.502;2023-04-25T11:00:14;10.10;99.90
2010;DHT22;1008;47.404;8.502;2023-04-25T11:02:42;10.80;99.90
2010;DHT22;1008;47.404;8.502;2023-04-25T11:05:10;11.10;99.90
2010;DHT22;1008;47.404;8.502;2023-04-25T11:07:48;11.20;99.90
2010;DHT22;1008;47.404;8.502;2023-04-25T11:10:16;11.30;99.90
2010;DHT22;1008;47.404;8.502;2023-04-25T11:12:43;11.70;99.90
2010;DHT22;1008;47.404;8.502;2023-04-25T11:15:12;12.10;99.90
2010;DHT22;1008;47.404;8.502;2023-04-25T11:17:39;12.30;99.90
2010;DHT22;1008;47.404;8.502;2023-04-25T11:20:07;12.10;99.90
2010;DHT22;1008;47.404;8.502;2023-04-25T11:22:37;11.70;99.90
2010;DHT22;1008;47.404;8.502;2023-04-25T11:25:05;11.80;99.90
2010;DHT22;1008;47.404;8.502;2023-04-25T11:27:32;12.10;99.90
2010;DHT22;1008;47.404;8.502;2023-04-25T11:30:11;12.10;99.90
2010;DHT22;1008;47.404;8.502;2023-04-25T11:32:39;11.90;99.90
2010;DHT22;1008;47.404;8.502;2023-04-25T11:35:07;11.60;99.90
2010;DHT22;1008;47.404;8.502;2023-04-25T11:37:34;11.80;99.90
2010;DHT22;1008;47.404;8.502;2023-04-25T11:40:02;12.00;99.90
2010;DHT22;1008;47.404;8.502;2023-04-25T11:42:31;11.70;99.90
2010;DHT22;1008;47.404;8.502;2023-04-25T11:44:58;11.50;99.90
2010;DHT22;1008;47.404;8.502;2023-04-25T11:47:29;11.60;99.90
2010;DHT22;1008;47.404;8.502;2023-04-25T11:49:58;12.00;99.90
2010;DHT22;1008;47.404;8.502;2023-04-25T11:52:24;12.30;99.90
2010;DHT22;1008;47.404;8.502;2023-04-25T11:54:51;12.50;99.90
2010;DHT22;1008;47.404;8.502;2023-04-25T11:57:19;12.60;99.90
2010;DHT22;1008;47.404;8.502;2023-04-25T11:59:46;12.80;99.90
2010;DHT22;1008;47.404;8.502;2023-04-25T12:02:24;13.10;99.90
2010;DHT22;1008;47.404;8.502;2023-04-25T12:04:52;12.80;99.90
2010;DHT22;1008;47.404;8.502;2023-04-25T12:07:19;12.50;99.90
2010;DHT22;1008;47.404;8.502;2023-04-25T12:09:51;12.30;99.90
2010;DHT22;1008;47.404;8.502;2023-04-25T12:12:18;12.30;99.90
2010;DHT22;1008;47.404;8.502;2023-04-25T12:14:47;12.30;99.90
2010;DHT22;1008;47.404;8.502;2023-04-25T12:17:14;12.10;99.90
2010;DHT22;1008;47.404;8.502;2023-04-25T12:19:41;12.20;99.90
2010;DHT22;1008;47.404;8.502;2023-04-25T12:22:21;12.30;99.90
2010;DHT22;1008;47.404;8.502;2023-04-25T12:24:48;12.40;99.90
2010;DHT22;1008;47.404;8.502;2023-04-25T12:27:16;12.20;99.90
2010;DHT22;1008;47.404;8.502;2023-04-25T12:29:51;11.90;99.90
2010;DHT22;1008;47.404;8.502;2023-04-25T12:32:19;11.30;99.90
2010;DHT22;1008;47.404;8.502;2023-04-25T12:34:45;11.20;99.90
2010;DHT22;1008;47.404;8.502;2023-04-25T12:37:12;11.20;99.90
2010;DHT22;1008;47.404;8.502;2023-04-25T12:39:41;11.50;99.90
2010;DHT22;1008;47.404;8.502;2023-04-25T12:42:07;11.90;99.90
2010;DHT22;1008;47.404;8.502;2023-04-25T12:44:37;12.10;99.90
2010;DHT22;1008;47.404;8.502;2023-04-25T12:47:04;12.20;99.90
2010;DHT22;1008;47.404;8.502;2023-04-25T12:49:30;12.70;99.90
2010;DHT22;1008;47.404;8.502;2023-04-25T12:51:57;13.60;99.90
2010;DHT22;1008;47.404;8.502;2023-04-25T12:54:24;14.00;99.90
2010;DHT22;1008;47.404;8.502;2023-04-25T12:56:52;13.90;99.90
2010;DHT22;1008;47.404;8.502;2023-04-25T12:59:20;13.60;99.90
2010;DHT22;1008;47.404;8.502;2023-04-25T13:01:47;13.20;99.90
2010;DHT22;1008;47.404;8.502;2023-04-25T13:04:13;13.40;99.90
2010;DHT22;1008;47.404;8.502;2023-04-25T13:06:41;13.80;99.90
2010;DHT22;1008;47.404;8.502;2023-04-25T13:09:08;13.80;99.90
2010;DHT22;1008;47.404;8.502;2023-04-25T13:11:35;13.20;99.90
2010;DHT22;1008;47.404;8.502;2023-04-25T13:14:04;12.80;99.90
2010;DHT22;1008;47.404;8.502;2023-04-25T13:16:31;12.70;99.90
2010;DHT22;1008;47.404;8.502;2023-04-25T13:18:58;12.80;99.90
2010;DHT22;1008;47.404;8.502;2023-04-25T13:21:25;13.00;99.90
2010;DHT22;1008;47.404;8.502;2023-04-25T13:23:52;13.00;99.90
2010;DHT22;1008;47.404;8.502;2023-04-25T13:26:19;13.40;99.90
2010;DHT22;1008;47.404;8.502;2023-04-25T13:28:45;13.60;99.90
2010;DHT22;1008;47.404;8.502;2023-04-25T13:31:13;13.40;99.90
2010;DHT22;1008;47.404;8.502;2023-04-25T13:33:40;13.40;99.90
2010;DHT22;1008;47.404;8.502;2023-04-25T13:36:07;13.60;99.90
2010;DHT22;1008;47.404;8.502;2023-04-25T13:38:34;13.00;99.90
2010;DHT22;1008;47.404;8.502;2023-04-25T13:41:01;12.80;99.90
2010;DHT22;1008;47.404;8.502;2023-04-25T13:43:27;12.70;99.90
2010;DHT22;1008;47.404;8.502;2023-04-25T13:45:54;12.50;99.90
2010;DHT22;1008;47.404;8.502;2023-04-25T13:48:23;12.60;99.90
2010;DHT22;1008;47.404;8.502;2023-04-25T13:50:50;12.90;99.90
2010;DHT22;1008;47.404;8.502;2023-04-25T13:53:17;13.00;99.90
2010;DHT22;1008;47.404;8.502;2023-04-25T13:55:44;12.60;99.90
2010;DHT22;1008;47.404;8.502;2023-04-25T13:58:11;12.50;99.90
2010;DHT22;1008;47.404;8.502;2023-04-25T14:00:38;12.10;99.90
2010;DHT22;1008;47.404;8.502;2023-04-25T14:03:05;12.10;99.90
2010;DHT22;1008;47.404;8.502;2023-04-25T14:05:35;11.90;99.90
2010;DHT22;1008;47.404;8.502;2023-04-25T14:08:07;11.60;99.90
2010;DHT22;1008;47.404;8.502;2023-04-25T14:10:35;11.50;99.90
2010;DHT22;1008;47.404;8.502;2023-04-25T14:13:02;11.60;99.90
2010;DHT22;1008;47.404;8.502;2023-04-25T14:15:30;11.50;99.90
2010;DHT22;1008;47.404;8.502;2023-04-25T14:17:57;11.60;99.90
2010;DHT22;1008;47.404;8.502;2023-04-25T14:20:23;11.80;99.90
2010;DHT22;1008;47.404;8.502;2023-04-25T14:22:52;12.10;99.90
2010;DHT22;1008;47.404;8.502;2023-04-25T14:25:20;12.20;99.90
2010;DHT22;1008;47.404;8.502;2023-04-25T14:27:47;12.40;99.90
2010;DHT22;1008;47.404;8.502;2023-04-25T14:30:15;12.80;99.90
2010;DHT22;1008;47.404;8.502;2023-04-25T14:32:42;13.10;99.90
2010;DHT22;1008;47.404;8.502;2023-04-25T14:35:10;12.70;99.90
2010;DHT22;1008;47.404;8.502;2023-04-25T14:37:37;12.60;99.90
2010;DHT22;1008;47.404;8.502;2023-04-25T14:40:06;12.30;99.90
2010;DHT22;1008;47.404;8.502;2023-04-25T14:42:34;12.30;99.90
2010;DHT22;1008;47.404;8.502;2023-04-25T14:45:01;12.20;99.90
2010;DHT22;1008;47.404;8.502;2023-04-25T14:47:28;11.70;99.90
2010;DHT22;1008;47.404;8.502;2023-04-25T14:49:55;11.50;99.90
2010;DHT22;1008;47.404;8.502;2023-04-25T14:52:22;11.60;99.90
2010;DHT22;1008;47.404;8.502;2023-04-25T14:54:49;11.60;99.90
2010;DHT22;1008;47.404;8.502;2023-04-25T14:57:17;11.70;99.90
2010;DHT22;1008;47.404;8.502;2023-04-25T14:59:44;11.40;99.90
2010;DHT22;1008;47.404;8.502;2023-04-25T15:02:11;11.40;99.90
2010;DHT22;1008;47.404;8.502;2023-04-25T15:04:38;11.30;99.90
2010;DHT22;1008;47.404;8.502;2023-04-25T15:07:05;10.90;99.90
2010;DHT22;1008;47.404;8.502;2023-04-25T15:09:32;11.00;99.90
2010;DHT22;1008;47.404;8.502;2023-04-25T15:11:58;11.10;99.90
2010;DHT22;1008;47.404;8.502;2023-04-25T15:14:27;11.10;99.90
2010;DHT22;1008;47.404;8.502;2023-04-25T15:16:54;10.90;99.90
2010;DHT22;1008;47.404;8.502;2023-04-25T15:19:21;11.00;99.90
2010;DHT22;1008;47.404;8.502;2023-04-25T15:21:47;10.80;99.90
2010;DHT22;1008;47.404;8.502;2023-04-25T15:24:14;10.60;99.90
2010;DHT22;1008;47.404;8.502;2023-04-25T15:26:41;10.60;99.90
2010;DHT22;1008;47.404;8.502;2023-04-25T15:29:08;10.60;99.90
2010;DHT22;1008;47.404;8.502;2023-04-25T15:31:36;10.60;99.90
2010;DHT22;1008;47.404;8.502;2023-04-25T15:34:03;10.50;99.90
2010;DHT22;1008;47.404;8.502;2023-04-25T15:36:30;11.00;99.90
2010;DHT22;1008;47.404;8.502;2023-04-25T15:38:57;11.40;99.90
2010;DHT22;1008;47.404;8.502;2023-04-25T15:41:24;11.60;99.90
2010;DHT22;1008;47.404;8.502;2023-04-25T15:43:52;11.90;99.90
2010;DHT22;1008;47.404;8.502;2023-04-25T15:46:19;11.90;99.90
2010;DHT22;1008;47.404;8.502;2023-04-25T15:48:47;12.10;99.90
2010;DHT22;1008;47.404;8.502;2023-04-25T15:51:14;12.50;99.90
2010;DHT22;1008;47.404;8.502;2023-04-25T15:53:41;12.60;99.90
2010;DHT22;1008;47.404;8.502;2023-04-25T15:56:08;12.40;99.90
2010;DHT22;1008;47.404;8.502;2023-04-25T15:58:35;12.80;99.90
2010;DHT22;1008;47.404;8.502;2023-04-25T16:01:02;12.80;99.90
2010;DHT22;1008;47.404;8.502;2023-04-25T16:03:30;12.80;99.90
2010;DHT22;1008;47.404;8.502;2023-04-25T16:05:58;12.70;99.90
2010;DHT22;1008;47.404;8.502;2023-04-25T16:08:25;12.90;99.90
2010;DHT22;1008;47.404;8.502;2023-04-25T16:10:54;13.50;99.90